sensor_id;sensor_type;location;lat;lon;timestamp;P1;durP1;ratioP1;P2;durP2;ratioP2
23185;SDS011;11761;51.324;4.590;2022-11-20T00:01:11;10.32;;;5.43;;
23185;SDS011;11761;51.324;4.590;2022-11-20T00:03:45;10.98;;;5.85;;
23185;SDS011;11761;51.324;4.590;2022-11-20T00:06:12;11.20;;;5.05;;
23185;SDS011;11761;51.324;4.590;2022-11-20T00:08:41;10.57;;;5.05;;
23185;SDS011;11761;51.324;4.590;2022-11-20T00:11:11;8.52;;;4.70;;
23185;SDS011;11761;51.324;4.590;2022-11-20T00:13:48;11.23;;;4.78;;
23185;SDS011;11761;51.324;4.590;2022-11-20T00:16:17;9.65;;;5.28;;
23185;SDS011;11761;51.324;4.590;2022-11-20T00:18:45;8.88;;;5.00;;
23185;SDS011;11761;51.324;4.590;2022-11-20T00:21:16;9.88;;;5.15;;
23185;SDS011;11761;51.324;4.590;2022-11-20T00:23:44;8.82;;;5.05;;
23185;SDS011;11761;51.324;4.590;2022-11-20T00:26:11;11.55;;;5.15;;
23185;SDS011;11761;51.324;4.590;2022-11-20T00:28:39;11.38;;;5.57;;
23185;SDS011;11761;51.324;4.590;2022-11-20T00:31:08;12.15;;;5.18;;
23185;SDS011;11761;51.324;4.590;2022-11-20T00:33:39;10.10;;;4.97;;
23185;SDS011;11761;51.324;4.590;2022-11-20T00:36:07;9.65;;;5.00;;
23185;SDS011;11761;51.324;4.590;2022-11-20T00:38:35;9.75;;;5.32;;
23185;SDS011;11761;51.324;4.590;2022-11-20T00:41:03;10.18;;;5.40;;
23185;SDS011;11761;51.324;4.590;2022-11-20T00:43:31;14.73;;;6.57;;
23185;SDS011;11761;51.324;4.590;2022-11-20T00:46:01;9.95;;;5.38;;
23185;SDS011;11761;51.324;4.590;2022-11-20T00:48:28;9.63;;;5.32;;
23185;SDS011;11761;51.324;4.590;2022-11-20T00:50:55;10.73;;;5.55;;
23185;SDS011;11761;51.324;4.590;2022-11-20T00:53:21;11.35;;;5.28;;
23185;SDS011;11761;51.324;4.590;2022-11-20T00:55:58;9.68;;;5.70;;
23185;SDS011;11761;51.324;4.590;2022-11-20T00:58:28;10.13;;;5.43;;
23185;SDS011;11761;51.324;4.590;2022-11-20T01:01:03;8.82;;;5.05;;
23185;SDS011;11761;51.324;4.590;2022-11-20T01:03:32;9.85;;;5.50;;
23185;SDS011;11761;51.324;4.590;2022-11-20T01:06:06;10.43;;;5.50;;
23185;SDS011;11761;51.324;4.590;2022-11-20T01:08:35;14.90;;;7.55;;
23185;SDS011;11761;51.324;4.590;2022-11-20T01:11:02;16.83;;;8.23;;
23185;SDS011;11761;51.324;4.590;2022-11-20T01:13:34;10.45;;;5.85;;
23185;SDS011;11761;51.324;4.590;2022-11-20T01:18:34;12.23;;;5.70;;
23185;SDS011;11761;51.324;4.590;2022-11-20T01:21:02;12.73;;;6.50;;
23185;SDS011;11761;51.324;4.590;2022-11-20T01:23:31;12.48;;;6.43;;
23185;SDS011;11761;51.324;4.590;2022-11-20T01:25:59;13.70;;;6.95;;
23185;SDS011;11761;51.324;4.590;2022-11-20T01:28:30;11.95;;;6.05;;
23185;SDS011;11761;51.324;4.590;2022-11-20T01:30:57;10.57;;;5.72;;
23185;SDS011;11761;51.324;4.590;2022-11-20T01:33:23;12.63;;;6.03;;
23185;SDS011;11761;51.324;4.590;2022-11-20T01:35:50;10.75;;;5.88;;
23185;SDS011;11761;51.324;4.590;2022-11-20T01:38:16;11.88;;;5.88;;
23185;SDS011;11761;51.324;4.590;2022-11-20T01:40:43;11.02;;;4.97;;
23185;SDS011;11761;51.324;4.590;2022-11-20T01:43:14;12.13;;;6.35;;
23185;SDS011;11761;51.324;4.590;2022-11-20T01:46:06;13.38;;;6.85;;
23185;SDS011;11761;51.324;4.590;2022-11-20T01:53:59;11.10;;;5.68;;
23185;SDS011;11761;51.324;4.590;2022-11-20T01:56:30;10.52;;;5.97;;
23185;SDS011;11761;51.324;4.590;2022-11-20T01:59:00;10.18;;;5.30;;
23185;SDS011;11761;51.324;4.590;2022-11-20T02:01:29;9.82;;;5.82;;
23185;SDS011;11761;51.324;4.590;2022-11-20T02:03:55;9.70;;;5.60;;
23185;SDS011;11761;51.324;4.590;2022-11-20T02:08:53;11.80;;;6.20;;
23185;SDS011;11761;51.324;4.590;2022-11-20T02:11:21;10.70;;;6.05;;
23185;SDS011;11761;51.324;4.590;2022-11-20T02:13:47;12.13;;;6.47;;
23185;SDS011;11761;51.324;4.590;2022-11-20T02:18:42;11.02;;;6.00;;
23185;SDS011;11761;51.324;4.590;2022-11-20T02:24:32;12.25;;;6.00;;
23185;SDS011;11761;51.324;4.590;2022-11-20T02:27:01;10.70;;;5.75;;
23185;SDS011;11761;51.324;4.590;2022-11-20T02:29:33;9.30;;;5.28;;
23185;SDS011;11761;51.324;4.590;2022-11-20T02:32:05;10.68;;;5.38;;
23185;SDS011;11761;51.324;4.590;2022-11-20T02:34:31;10.82;;;5.75;;
23185;SDS011;11761;51.324;4.590;2022-11-20T02:36:58;10.90;;;6.13;;
23185;SDS011;11761;51.324;4.590;2022-11-20T02:39:25;13.23;;;6.70;;
23185;SDS011;11761;51.324;4.590;2022-11-20T02:41:53;12.02;;;6.13;;
23185;SDS011;11761;51.324;4.590;2022-11-20T02:44:21;10.57;;;6.45;;
23185;SDS011;11761;51.324;4.590;2022-11-20T02:46:47;10.55;;;5.90;;
23185;SDS011;11761;51.324;4.590;2022-11-20T02:49:13;13.32;;;6.57;;
23185;SDS011;11761;51.324;4.590;2022-11-20T02:51:39;11.80;;;5.97;;
23185;SDS011;11761;51.324;4.590;2022-11-20T02:54:05;10.75;;;5.40;;
23185;SDS011;11761;51.324;4.590;2022-11-20T02:56:31;12.13;;;6.45;;
23185;SDS011;11761;51.324;4.590;2022-11-20T02:58:57;10.32;;;5.70;;
23185;SDS011;11761;51.324;4.590;2022-11-20T03:01:23;10.82;;;5.47;;
23185;SDS011;11761;51.324;4.590;2022-11-20T03:03:49;10.90;;;6.30;;
23185;SDS011;11761;51.324;4.590;2022-11-20T03:06:16;11.35;;;6.63;;
23185;SDS011;11761;51.324;4.590;2022-11-20T03:08:42;10.13;;;5.63;;
23185;SDS011;11761;51.324;4.590;2022-11-20T03:11:09;9.27;;;5.07;;
23185;SDS011;11761;51.324;4.590;2022-11-20T03:13:35;11.68;;;6.13;;
23185;SDS011;11761;51.324;4.590;2022-11-20T03:16:09;12.98;;;6.38;;
23185;SDS011;11761;51.324;4.590;2022-11-20T03:18:41;10.45;;;6.30;;
23185;SDS011;11761;51.324;4.590;2022-11-20T03:21:07;11.05;;;5.95;;
23185;SDS011;11761;51.324;4.590;2022-11-20T03:23:34;11.57;;;6.20;;
23185;SDS011;11761;51.324;4.590;2022-11-20T03:26:09;11.88;;;5.93;;
23185;SDS011;11761;51.324;4.590;2022-11-20T03:28:49;12.10;;;5.50;;
23185;SDS011;11761;51.324;4.590;2022-11-20T03:31:18;12.02;;;6.53;;
23185;SDS011;11761;51.324;4.590;2022-11-20T03:33:47;10.52;;;6.07;;
23185;SDS011;11761;51.324;4.590;2022-11-20T03:36:14;11.77;;;5.72;;
23185;SDS011;11761;51.324;4.590;2022-11-20T03:38:42;11.18;;;6.15;;
23185;SDS011;11761;51.324;4.590;2022-11-20T03:41:10;10.88;;;5.78;;
23185;SDS011;11761;51.324;4.590;2022-11-20T03:43:38;10.40;;;6.28;;
23185;SDS011;11761;51.324;4.590;2022-11-20T03:46:05;13.38;;;6.32;;
23185;SDS011;11761;51.324;4.590;2022-11-20T03:48:31;10.18;;;5.80;;
23185;SDS011;11761;51.324;4.590;2022-11-20T03:53:38;11.10;;;6.35;;
23185;SDS011;11761;51.324;4.590;2022-11-20T03:56:05;10.77;;;5.80;;
23185;SDS011;11761;51.324;4.590;2022-11-20T03:58:33;16.27;;;7.63;;
23185;SDS011;11761;51.324;4.590;2022-11-20T04:01:08;12.45;;;6.07;;
23185;SDS011;11761;51.324;4.590;2022-11-20T04:03:43;11.48;;;6.22;;
23185;SDS011;11761;51.324;4.590;2022-11-20T04:06:14;12.00;;;6.35;;
23185;SDS011;11761;51.324;4.590;2022-11-20T04:08:42;11.38;;;7.00;;
23185;SDS011;11761;51.324;4.590;2022-11-20T04:13:42;15.50;;;6.72;;
23185;SDS011;11761;51.324;4.590;2022-11-20T04:16:11;10.95;;;6.47;;
23185;SDS011;11761;51.324;4.590;2022-11-20T04:18:37;10.38;;;5.60;;
23185;SDS011;11761;51.324;4.590;2022-11-20T04:21:04;9.45;;;5.65;;
23185;SDS011;11761;51.324;4.590;2022-11-20T04:23:30;10.07;;;5.25;;
23185;SDS011;11761;51.324;4.590;2022-11-20T04:26:15;10.75;;;5.80;;
23185;SDS011;11761;51.324;4.590;2022-11-20T04:28:41;11.65;;;6.30;;
23185;SDS011;11761;51.324;4.590;2022-11-20T04:31:08;12.23;;;6.20;;
23185;SDS011;11761;51.324;4.590;2022-11-20T04:33:36;10.32;;;5.70;;
23185;SDS011;11761;51.324;4.590;2022-11-20T04:36:03;11.88;;;6.43;;
23185;SDS011;11761;51.324;4.590;2022-11-20T04:38:31;11.32;;;6.25;;
23185;SDS011;11761;51.324;4.590;2022-11-20T04:40:58;11.00;;;5.75;;
23185;SDS011;11761;51.324;4.590;2022-11-20T04:43:25;10.38;;;5.85;;
23185;SDS011;11761;51.324;4.590;2022-11-20T04:45:55;10.57;;;5.68;;
23185;SDS011;11761;51.324;4.590;2022-11-20T04:48:22;11.27;;;6.30;;
23185;SDS011;11761;51.324;4.590;2022-11-20T04:50:49;11.57;;;6.65;;
23185;SDS011;11761;51.324;4.590;2022-11-20T04:53:15;12.80;;;5.90;;
23185;SDS011;11761;51.324;4.590;2022-11-20T04:55:41;13.45;;;6.28;;
23185;SDS011;11761;51.324;4.590;2022-11-20T04:58:08;11.85;;;6.45;;
23185;SDS011;11761;51.324;4.590;2022-11-20T05:00:34;12.95;;;6.43;;
23185;SDS011;11761;51.324;4.590;2022-11-20T05:03:00;13.20;;;6.88;;
23185;SDS011;11761;51.324;4.590;2022-11-20T05:05:27;11.70;;;6.18;;
23185;SDS011;11761;51.324;4.590;2022-11-20T05:07:55;9.52;;;5.50;;
23185;SDS011;11761;51.324;4.590;2022-11-20T05:10:22;12.60;;;5.90;;
23185;SDS011;11761;51.324;4.590;2022-11-20T05:12:48;13.57;;;6.95;;
23185;SDS011;11761;51.324;4.590;2022-11-20T05:15:14;12.70;;;7.13;;
23185;SDS011;11761;51.324;4.590;2022-11-20T05:17:40;14.15;;;6.47;;
23185;SDS011;11761;51.324;4.590;2022-11-20T05:20:06;10.57;;;6.10;;
23185;SDS011;11761;51.324;4.590;2022-11-20T05:22:34;13.65;;;7.22;;
23185;SDS011;11761;51.324;4.590;2022-11-20T05:25:00;14.57;;;6.97;;
23185;SDS011;11761;51.324;4.590;2022-11-20T05:27:27;14.45;;;7.28;;
23185;SDS011;11761;51.324;4.590;2022-11-20T05:29:53;17.63;;;7.13;;
23185;SDS011;11761;51.324;4.590;2022-11-20T05:32:19;13.30;;;6.82;;
23185;SDS011;11761;51.324;4.590;2022-11-20T05:34:45;17.77;;;8.27;;
23185;SDS011;11761;51.324;4.590;2022-11-20T05:37:11;17.30;;;8.45;;
23185;SDS011;11761;51.324;4.590;2022-11-20T05:39:37;21.85;;;8.50;;
23185;SDS011;11761;51.324;4.590;2022-11-20T05:42:03;19.80;;;8.82;;
23185;SDS011;11761;51.324;4.590;2022-11-20T05:44:48;16.90;;;8.77;;
23185;SDS011;11761;51.324;4.590;2022-11-20T05:47:14;18.27;;;8.80;;
23185;SDS011;11761;51.324;4.590;2022-11-20T05:49:40;20.63;;;9.55;;
23185;SDS011;11761;51.324;4.590;2022-11-20T05:52:06;21.48;;;10.15;;
23185;SDS011;11761;51.324;4.590;2022-11-20T05:54:32;20.75;;;8.93;;
23185;SDS011;11761;51.324;4.590;2022-11-20T05:56:58;19.83;;;9.70;;
23185;SDS011;11761;51.324;4.590;2022-11-20T05:59:24;19.63;;;9.73;;
23185;SDS011;11761;51.324;4.590;2022-11-20T06:01:50;20.95;;;10.18;;
23185;SDS011;11761;51.324;4.590;2022-11-20T06:04:17;17.80;;;9.23;;
23185;SDS011;11761;51.324;4.590;2022-11-20T06:06:43;19.60;;;9.45;;
23185;SDS011;11761;51.324;4.590;2022-11-20T06:09:10;19.05;;;9.68;;
23185;SDS011;11761;51.324;4.590;2022-11-20T06:11:36;23.08;;;9.48;;
23185;SDS011;11761;51.324;4.590;2022-11-20T06:14:02;19.15;;;9.00;;
23185;SDS011;11761;51.324;4.590;2022-11-20T06:16:28;22.63;;;10.25;;
23185;SDS011;11761;51.324;4.590;2022-11-20T06:18:54;30.52;;;12.45;;
23185;SDS011;11761;51.324;4.590;2022-11-20T06:21:21;23.48;;;10.85;;
23185;SDS011;11761;51.324;4.590;2022-11-20T06:23:48;19.30;;;10.07;;
23185;SDS011;11761;51.324;4.590;2022-11-20T06:26:16;18.77;;;9.55;;
23185;SDS011;11761;51.324;4.590;2022-11-20T06:28:53;22.55;;;10.38;;
23185;SDS011;11761;51.324;4.590;2022-11-20T06:31:22;22.02;;;10.23;;
23185;SDS011;11761;51.324;4.590;2022-11-20T06:33:50;20.42;;;9.60;;
23185;SDS011;11761;51.324;4.590;2022-11-20T06:36:18;23.98;;;10.57;;
23185;SDS011;11761;51.324;4.590;2022-11-20T06:38:46;25.38;;;10.27;;
23185;SDS011;11761;51.324;4.590;2022-11-20T06:41:14;22.08;;;10.18;;
23185;SDS011;11761;51.324;4.590;2022-11-20T06:43:41;24.73;;;9.82;;
23185;SDS011;11761;51.324;4.590;2022-11-20T06:46:09;21.08;;;10.00;;
23185;SDS011;11761;51.324;4.590;2022-11-20T06:48:36;22.73;;;10.00;;
23185;SDS011;11761;51.324;4.590;2022-11-20T06:51:03;22.27;;;10.50;;
23185;SDS011;11761;51.324;4.590;2022-11-20T06:53:30;22.40;;;10.63;;
23185;SDS011;11761;51.324;4.590;2022-11-20T06:55:57;24.05;;;10.52;;
23185;SDS011;11761;51.324;4.590;2022-11-20T06:58:25;22.50;;;10.05;;
23185;SDS011;11761;51.324;4.590;2022-11-20T07:00:53;24.08;;;10.75;;
23185;SDS011;11761;51.324;4.590;2022-11-20T07:03:23;24.02;;;10.20;;
23185;SDS011;11761;51.324;4.590;2022-11-20T07:05:49;21.05;;;10.15;;
23185;SDS011;11761;51.324;4.590;2022-11-20T07:08:15;30.92;;;13.18;;
23185;SDS011;11761;51.324;4.590;2022-11-20T07:10:41;26.23;;;12.15;;
23185;SDS011;11761;51.324;4.590;2022-11-20T07:13:07;24.15;;;13.00;;
23185;SDS011;11761;51.324;4.590;2022-11-20T07:15:33;27.67;;;13.68;;
23185;SDS011;11761;51.324;4.590;2022-11-20T07:18:00;25.67;;;11.02;;
23185;SDS011;11761;51.324;4.590;2022-11-20T07:20:26;24.48;;;10.73;;
23185;SDS011;11761;51.324;4.590;2022-11-20T07:22:56;23.45;;;10.52;;
23185;SDS011;11761;51.324;4.590;2022-11-20T07:25:23;23.85;;;10.52;;
23185;SDS011;11761;51.324;4.590;2022-11-20T07:27:50;23.38;;;10.85;;
23185;SDS011;11761;51.324;4.590;2022-11-20T07:30:17;24.23;;;10.50;;
23185;SDS011;11761;51.324;4.590;2022-11-20T07:32:47;26.02;;;11.68;;
23185;SDS011;11761;51.324;4.590;2022-11-20T07:35:16;25.30;;;10.82;;
23185;SDS011;11761;51.324;4.590;2022-11-20T07:37:42;21.13;;;10.57;;
23185;SDS011;11761;51.324;4.590;2022-11-20T07:40:09;25.98;;;13.48;;
23185;SDS011;11761;51.324;4.590;2022-11-20T07:42:35;28.13;;;11.77;;
23185;SDS011;11761;51.324;4.590;2022-11-20T07:45:01;28.75;;;12.63;;
23185;SDS011;11761;51.324;4.590;2022-11-20T07:47:28;27.80;;;13.93;;
23185;SDS011;11761;51.324;4.590;2022-11-20T07:49:54;25.40;;;12.13;;
23185;SDS011;11761;51.324;4.590;2022-11-20T07:52:20;26.20;;;10.50;;
23185;SDS011;11761;51.324;4.590;2022-11-20T07:54:46;24.05;;;11.20;;
23185;SDS011;11761;51.324;4.590;2022-11-20T07:57:12;23.73;;;11.57;;
23185;SDS011;11761;51.324;4.590;2022-11-20T07:59:38;21.40;;;10.35;;
23185;SDS011;11761;51.324;4.590;2022-11-20T08:02:05;27.05;;;12.43;;
23185;SDS011;11761;51.324;4.590;2022-11-20T08:04:31;24.00;;;11.00;;
23185;SDS011;11761;51.324;4.590;2022-11-20T08:06:57;25.48;;;11.02;;
23185;SDS011;11761;51.324;4.590;2022-11-20T08:09:23;26.48;;;12.05;;
23185;SDS011;11761;51.324;4.590;2022-11-20T08:11:49;24.05;;;11.23;;
23185;SDS011;11761;51.324;4.590;2022-11-20T08:14:34;23.23;;;10.43;;
23185;SDS011;11761;51.324;4.590;2022-11-20T08:17:00;28.35;;;12.65;;
23185;SDS011;11761;51.324;4.590;2022-11-20T08:19:26;25.85;;;12.35;;
23185;SDS011;11761;51.324;4.590;2022-11-20T08:21:52;28.38;;;11.32;;
23185;SDS011;11761;51.324;4.590;2022-11-20T08:24:19;30.70;;;12.50;;
23185;SDS011;11761;51.324;4.590;2022-11-20T08:26:45;29.77;;;11.38;;
23185;SDS011;11761;51.324;4.590;2022-11-20T08:29:11;25.20;;;11.57;;
23185;SDS011;11761;51.324;4.590;2022-11-20T08:31:38;23.83;;;10.88;;
23185;SDS011;11761;51.324;4.590;2022-11-20T08:34:04;23.73;;;11.90;;
23185;SDS011;11761;51.324;4.590;2022-11-20T08:36:32;26.23;;;12.18;;
23185;SDS011;11761;51.324;4.590;2022-11-20T08:39:00;29.73;;;11.55;;
23185;SDS011;11761;51.324;4.590;2022-11-20T08:41:26;25.42;;;11.85;;
23185;SDS011;11761;51.324;4.590;2022-11-20T08:43:54;34.22;;;15.15;;
23185;SDS011;11761;51.324;4.590;2022-11-20T08:46:31;29.92;;;13.82;;
23185;SDS011;11761;51.324;4.590;2022-11-20T08:49:05;29.50;;;13.30;;
23185;SDS011;11761;51.324;4.590;2022-11-20T08:51:32;32.90;;;15.07;;
23185;SDS011;11761;51.324;4.590;2022-11-20T08:53:59;27.77;;;12.10;;
23185;SDS011;11761;51.324;4.590;2022-11-20T08:56:25;28.45;;;12.52;;
23185;SDS011;11761;51.324;4.590;2022-11-20T08:58:51;29.20;;;11.98;;
23185;SDS011;11761;51.324;4.590;2022-11-20T09:01:18;27.52;;;12.88;;
23185;SDS011;11761;51.324;4.590;2022-11-20T09:03:45;25.77;;;11.55;;
23185;SDS011;11761;51.324;4.590;2022-11-20T09:06:12;30.02;;;13.40;;
23185;SDS011;11761;51.324;4.590;2022-11-20T09:08:39;29.20;;;13.85;;
23185;SDS011;11761;51.324;4.590;2022-11-20T09:11:05;25.63;;;11.85;;
23185;SDS011;11761;51.324;4.590;2022-11-20T09:13:33;26.23;;;11.70;;
23185;SDS011;11761;51.324;4.590;2022-11-20T09:16:04;26.23;;;12.00;;
23185;SDS011;11761;51.324;4.590;2022-11-20T09:18:32;22.40;;;11.68;;
23185;SDS011;11761;51.324;4.590;2022-11-20T09:21:02;27.23;;;10.85;;
23185;SDS011;11761;51.324;4.590;2022-11-20T09:23:31;26.92;;;10.85;;
23185;SDS011;11761;51.324;4.590;2022-11-20T09:26:03;21.95;;;10.63;;
23185;SDS011;11761;51.324;4.590;2022-11-20T09:28:31;26.25;;;10.50;;
23185;SDS011;11761;51.324;4.590;2022-11-20T09:30:59;22.80;;;10.60;;
23185;SDS011;11761;51.324;4.590;2022-11-20T09:33:25;22.83;;;10.48;;
23185;SDS011;11761;51.324;4.590;2022-11-20T09:35:52;23.65;;;10.40;;
23185;SDS011;11761;51.324;4.590;2022-11-20T09:38:18;23.50;;;10.52;;
23185;SDS011;11761;51.324;4.590;2022-11-20T09:40:45;24.63;;;10.63;;
23185;SDS011;11761;51.324;4.590;2022-11-20T09:43:19;22.48;;;11.55;;
23185;SDS011;11761;51.324;4.590;2022-11-20T09:56:45;23.25;;;11.05;;
23185;SDS011;11761;51.324;4.590;2022-11-20T10:01:56;25.63;;;11.05;;
23185;SDS011;11761;51.324;4.590;2022-11-20T10:04:24;23.20;;;9.68;;
23185;SDS011;11761;51.324;4.590;2022-11-20T10:06:52;26.85;;;10.82;;
23185;SDS011;11761;51.324;4.590;2022-11-20T10:09:29;20.50;;;10.05;;
23185;SDS011;11761;51.324;4.590;2022-11-20T10:12:23;26.05;;;12.05;;
23185;SDS011;11761;51.324;4.590;2022-11-20T10:22:54;23.40;;;10.45;;
23185;SDS011;11761;51.324;4.590;2022-11-20T10:25:38;26.00;;;11.15;;
23185;SDS011;11761;51.324;4.590;2022-11-20T10:30:50;25.13;;;10.68;;
23185;SDS011;11761;51.324;4.590;2022-11-20T10:33:25;25.80;;;10.50;;
23185;SDS011;11761;51.324;4.590;2022-11-20T10:36:04;22.48;;;10.20;;
23185;SDS011;11761;51.324;4.590;2022-11-20T10:38:45;24.55;;;11.57;;
23185;SDS011;11761;51.324;4.590;2022-11-20T10:41:32;23.83;;;11.65;;
23185;SDS011;11761;51.324;4.590;2022-11-20T10:44:09;23.85;;;10.40;;
23185;SDS011;11761;51.324;4.590;2022-11-20T10:46:38;24.90;;;10.15;;
23185;SDS011;11761;51.324;4.590;2022-11-20T10:49:15;26.55;;;10.52;;
23185;SDS011;11761;51.324;4.590;2022-11-20T10:54:57;25.58;;;9.38;;
23185;SDS011;11761;51.324;4.590;2022-11-20T11:00:20;28.60;;;10.75;;
23185;SDS011;11761;51.324;4.590;2022-11-20T11:02:48;21.80;;;10.80;;
23185;SDS011;11761;51.324;4.590;2022-11-20T11:05:22;28.50;;;12.75;;
23185;SDS011;11761;51.324;4.590;2022-11-20T11:08:12;24.25;;;10.95;;
23185;SDS011;11761;51.324;4.590;2022-11-20T11:13:20;27.10;;;10.70;;
23185;SDS011;11761;51.324;4.590;2022-11-20T11:15:54;24.35;;;10.77;;
23185;SDS011;11761;51.324;4.590;2022-11-20T11:20:59;24.05;;;10.77;;
23185;SDS011;11761;51.324;4.590;2022-11-20T11:26:07;24.08;;;8.98;;
23185;SDS011;11761;51.324;4.590;2022-11-20T11:28:55;22.02;;;10.02;;
23185;SDS011;11761;51.324;4.590;2022-11-20T11:31:23;22.40;;;8.60;;
23185;SDS011;11761;51.324;4.590;2022-11-20T11:33:50;28.83;;;11.20;;
23185;SDS011;11761;51.324;4.590;2022-11-20T11:36:22;27.98;;;11.93;;
23185;SDS011;11761;51.324;4.590;2022-11-20T11:38:51;30.42;;;10.70;;
23185;SDS011;11761;51.324;4.590;2022-11-20T11:41:20;23.58;;;10.55;;
23185;SDS011;11761;51.324;4.590;2022-11-20T11:43:53;26.05;;;10.35;;
23185;SDS011;11761;51.324;4.590;2022-11-20T11:47:03;25.75;;;11.20;;
23185;SDS011;11761;51.324;4.590;2022-11-20T11:49:29;25.25;;;11.02;;
23185;SDS011;11761;51.324;4.590;2022-11-20T12:00:18;27.80;;;10.68;;
23185;SDS011;11761;51.324;4.590;2022-11-20T12:05:18;26.95;;;11.07;;
23185;SDS011;11761;51.324;4.590;2022-11-20T12:07:49;24.10;;;10.95;;
23185;SDS011;11761;51.324;4.590;2022-11-20T12:14:02;26.60;;;11.50;;
23185;SDS011;11761;51.324;4.590;2022-11-20T12:15:59;26.10;;;11.23;;
23185;SDS011;11761;51.324;4.590;2022-11-20T12:18:27;28.17;;;10.73;;
23185;SDS011;11761;51.324;4.590;2022-11-20T12:29:25;23.23;;;9.35;;
23185;SDS011;11761;51.324;4.590;2022-11-20T12:43:24;27.77;;;11.57;;
23185;SDS011;11761;51.324;4.590;2022-11-20T12:57:09;21.05;;;10.02;;
23185;SDS011;11761;51.324;4.590;2022-11-20T13:02:25;26.65;;;12.07;;
23185;SDS011;11761;51.324;4.590;2022-11-20T13:07:28;22.42;;;10.20;;
23185;SDS011;11761;51.324;4.590;2022-11-20T13:09:55;20.27;;;9.00;;
23185;SDS011;11761;51.324;4.590;2022-11-20T13:12:25;22.70;;;8.52;;
23185;SDS011;11761;51.324;4.590;2022-11-20T13:18:14;21.23;;;9.40;;
23185;SDS011;11761;51.324;4.590;2022-11-20T13:20:41;21.05;;;8.82;;
23185;SDS011;11761;51.324;4.590;2022-11-20T13:23:22;20.52;;;8.10;;
23185;SDS011;11761;51.324;4.590;2022-11-20T13:25:50;18.60;;;8.02;;
23185;SDS011;11761;51.324;4.590;2022-11-20T13:30:51;17.42;;;8.30;;
23185;SDS011;11761;51.324;4.590;2022-11-20T13:33:31;16.95;;;7.72;;
23185;SDS011;11761;51.324;4.590;2022-11-20T13:36:02;14.70;;;7.88;;
23185;SDS011;11761;51.324;4.590;2022-11-20T13:38:39;14.10;;;6.93;;
23185;SDS011;11761;51.324;4.590;2022-11-20T13:41:11;16.40;;;7.25;;
23185;SDS011;11761;51.324;4.590;2022-11-20T13:43:57;15.95;;;6.72;;
23185;SDS011;11761;51.324;4.590;2022-11-20T13:46:37;24.50;;;10.35;;
23185;SDS011;11761;51.324;4.590;2022-11-20T13:49:07;19.23;;;9.00;;
23185;SDS011;11761;51.324;4.590;2022-11-20T14:02:33;12.90;;;7.13;;
23185;SDS011;11761;51.324;4.590;2022-11-20T14:05:00;15.25;;;7.18;;
23185;SDS011;11761;51.324;4.590;2022-11-20T14:07:31;13.05;;;6.55;;
23185;SDS011;11761;51.324;4.590;2022-11-20T14:10:02;12.57;;;6.05;;
23185;SDS011;11761;51.324;4.590;2022-11-20T14:12:29;10.65;;;5.13;;
23185;SDS011;11761;51.324;4.590;2022-11-20T14:14:58;8.98;;;4.45;;
23185;SDS011;11761;51.324;4.590;2022-11-20T14:17:34;10.55;;;4.55;;
23185;SDS011;11761;51.324;4.590;2022-11-20T14:20:06;8.57;;;3.70;;
23185;SDS011;11761;51.324;4.590;2022-11-20T14:22:37;6.13;;;3.50;;
23185;SDS011;11761;51.324;4.590;2022-11-20T14:25:05;7.00;;;3.70;;
23185;SDS011;11761;51.324;4.590;2022-11-20T14:30:24;5.38;;;3.05;;
23185;SDS011;11761;51.324;4.590;2022-11-20T14:32:55;6.25;;;3.58;;
23185;SDS011;11761;51.324;4.590;2022-11-20T14:35:27;6.22;;;4.05;;
23185;SDS011;11761;51.324;4.590;2022-11-20T14:37:56;6.45;;;3.55;;
23185;SDS011;11761;51.324;4.590;2022-11-20T14:40:30;7.57;;;4.13;;
23185;SDS011;11761;51.324;4.590;2022-11-20T14:42:58;5.97;;;3.50;;
23185;SDS011;11761;51.324;4.590;2022-11-20T14:45:25;3.83;;;2.67;;
23185;SDS011;11761;51.324;4.590;2022-11-20T14:47:53;5.28;;;3.50;;
23185;SDS011;11761;51.324;4.590;2022-11-20T14:50:22;7.97;;;4.53;;
23185;SDS011;11761;51.324;4.590;2022-11-20T14:52:58;7.35;;;4.30;;
23185;SDS011;11761;51.324;4.590;2022-11-20T14:55:30;7.18;;;3.80;;
23185;SDS011;11761;51.324;4.590;2022-11-20T14:57:59;6.28;;;3.70;;
23185;SDS011;11761;51.324;4.590;2022-11-20T15:00:28;12.07;;;9.05;;
23185;SDS011;11761;51.324;4.590;2022-11-20T15:02:55;20.60;;;15.85;;
23185;SDS011;11761;51.324;4.590;2022-11-20T15:05:23;5.65;;;3.35;;
23185;SDS011;11761;51.324;4.590;2022-11-20T15:08:05;7.88;;;4.47;;
23185;SDS011;11761;51.324;4.590;2022-11-20T15:10:33;7.28;;;4.20;;
23185;SDS011;11761;51.324;4.590;2022-11-20T15:13:01;5.30;;;3.53;;
23185;SDS011;11761;51.324;4.590;2022-11-20T15:18:12;6.68;;;3.42;;
23185;SDS011;11761;51.324;4.590;2022-11-20T15:20:40;7.10;;;3.60;;
23185;SDS011;11761;51.324;4.590;2022-11-20T15:23:11;6.30;;;3.90;;
23185;SDS011;11761;51.324;4.590;2022-11-20T15:25:42;6.13;;;4.32;;
23185;SDS011;11761;51.324;4.590;2022-11-20T15:30:46;6.85;;;4.32;;
23185;SDS011;11761;51.324;4.590;2022-11-20T15:33:14;8.35;;;5.00;;
23185;SDS011;11761;51.324;4.590;2022-11-20T15:35:43;11.43;;;7.50;;
23185;SDS011;11761;51.324;4.590;2022-11-20T15:38:10;7.30;;;4.70;;
23185;SDS011;11761;51.324;4.590;2022-11-20T15:40:36;7.00;;;4.22;;
23185;SDS011;11761;51.324;4.590;2022-11-20T15:43:02;7.10;;;4.53;;
23185;SDS011;11761;51.324;4.590;2022-11-20T15:45:30;7.70;;;5.20;;
23185;SDS011;11761;51.324;4.590;2022-11-20T15:48:03;8.00;;;5.72;;
23185;SDS011;11761;51.324;4.590;2022-11-20T15:50:34;8.98;;;5.50;;
23185;SDS011;11761;51.324;4.590;2022-11-20T15:53:04;8.98;;;5.47;;
23185;SDS011;11761;51.324;4.590;2022-11-20T15:55:30;8.35;;;5.90;;
23185;SDS011;11761;51.324;4.590;2022-11-20T15:57:57;9.07;;;6.05;;
23185;SDS011;11761;51.324;4.590;2022-11-20T16:00:23;10.20;;;6.28;;
23185;SDS011;11761;51.324;4.590;2022-11-20T16:02:49;9.23;;;5.65;;
23185;SDS011;11761;51.324;4.590;2022-11-20T16:05:15;10.25;;;6.22;;
23185;SDS011;11761;51.324;4.590;2022-11-20T16:07:43;8.38;;;4.95;;
23185;SDS011;11761;51.324;4.590;2022-11-20T16:10:09;9.98;;;5.68;;
23185;SDS011;11761;51.324;4.590;2022-11-20T16:12:35;12.23;;;6.50;;
23185;SDS011;11761;51.324;4.590;2022-11-20T16:15:20;9.07;;;5.03;;
23185;SDS011;11761;51.324;4.590;2022-11-20T16:18:06;10.18;;;5.35;;
23185;SDS011;11761;51.324;4.590;2022-11-20T16:20:35;8.00;;;5.13;;
23185;SDS011;11761;51.324;4.590;2022-11-20T16:23:01;8.48;;;5.45;;
23185;SDS011;11761;51.324;4.590;2022-11-20T16:25:27;8.40;;;5.18;;
23185;SDS011;11761;51.324;4.590;2022-11-20T16:27:54;9.63;;;5.55;;
23185;SDS011;11761;51.324;4.590;2022-11-20T16:30:20;10.23;;;5.15;;
23185;SDS011;11761;51.324;4.590;2022-11-20T16:32:46;7.07;;;3.95;;
23185;SDS011;11761;51.324;4.590;2022-11-20T16:35:12;14.98;;;4.97;;
23185;SDS011;11761;51.324;4.590;2022-11-20T16:37:38;7.25;;;3.67;;
23185;SDS011;11761;51.324;4.590;2022-11-20T16:40:05;8.18;;;3.60;;
23185;SDS011;11761;51.324;4.590;2022-11-20T16:42:34;6.20;;;3.58;;
23185;SDS011;11761;51.324;4.590;2022-11-20T16:45:02;5.57;;;3.30;;
23185;SDS011;11761;51.324;4.590;2022-11-20T16:47:32;5.20;;;2.40;;
23185;SDS011;11761;51.324;4.590;2022-11-20T16:49:59;2.88;;;2.08;;
23185;SDS011;11761;51.324;4.590;2022-11-20T16:52:26;4.35;;;2.33;;
23185;SDS011;11761;51.324;4.590;2022-11-20T16:54:53;6.78;;;2.85;;
23185;SDS011;11761;51.324;4.590;2022-11-20T16:57:19;5.90;;;2.35;;
23185;SDS011;11761;51.324;4.590;2022-11-20T16:59:45;6.00;;;2.10;;